createdAt,value
2022-08-04T00:02:51.548Z,47.94
2022-08-04T00:05:30.259Z,47.64
2022-08-04T00:08:10.758Z,47.92
2022-08-04T00:10:39.980Z,47.97
2022-08-04T00:13:08.828Z,47.74
2022-08-04T00:15:37.207Z,47.55
2022-08-04T00:18:07.797Z,46.96
2022-08-04T00:20:38.178Z,47.57
2022-08-04T00:23:06.727Z,47.42
2022-08-04T00:25:33.698Z,47.25
2022-08-04T00:28:01.198Z,48.10
2022-08-04T00:30:28.578Z,49.66
2022-08-04T00:32:57.265Z,48.11
2022-08-04T00:35:24.500Z,47.80
2022-08-04T00:37:52.428Z,47.11
2022-08-04T00:40:34.009Z,48.32
2022-08-04T00:43:11.207Z,49.15
2022-08-04T00:46:23.017Z,48.67
2022-08-04T00:49:03.134Z,48.36
2022-08-04T00:51:42.480Z,47.40
2022-08-04T00:54:20.758Z,46.92
2022-08-04T00:57:02.747Z,47.40
2022-08-04T01:00:05.660Z,46.94
2022-08-04T01:02:59.263Z,48.01
2022-08-04T01:05:38.361Z,47.90
2022-08-04T01:08:29.958Z,48.26
2022-08-04T01:11:06.699Z,48.64
2022-08-04T01:14:04.307Z,49.52
2022-08-04T01:16:35.379Z,49.59
2022-08-04T01:19:23.158Z,49.09
2022-08-04T01:22:26.285Z,48.39
2022-08-04T01:25:04.610Z,48.55
2022-08-04T01:28:10.778Z,48.31
2022-08-04T01:30:42.748Z,49.25
2022-08-04T01:33:14.458Z,48.61
2022-08-04T01:36:13.501Z,48.17
2022-08-04T01:38:41.177Z,48.14
2022-08-04T01:41:10.385Z,48.39
2022-08-04T01:43:43.637Z,48.99
2022-08-04T01:46:16.473Z,50.49
2022-08-04T01:48:46.108Z,49.63
2022-08-04T01:51:12.944Z,49.41
2022-08-04T01:53:42.407Z,50.19
2022-08-04T01:56:11.127Z,50.20
2022-08-04T01:58:39.687Z,50.19
2022-08-04T02:01:12.185Z,49.37
2022-08-04T02:04:18.089Z,50.02
2022-08-04T02:06:38.409Z,49.69
2022-08-04T02:09:15.398Z,50.91
2022-08-04T02:11:49.738Z,50.61
2022-08-04T02:14:43.307Z,51.94
2022-08-04T02:17:14.249Z,51.87
2022-08-04T02:20:02.647Z,52.17
2022-08-04T02:22:33.457Z,51.92
2022-08-04T02:25:11.229Z,52.67
2022-08-04T02:28:00.148Z,51.12
2022-08-04T02:30:34.438Z,51.07
2022-08-04T02:33:04.203Z,51.48
2022-08-04T02:35:35.927Z,52.12
2022-08-04T02:38:25.500Z,52.11
2022-08-04T02:40:55.464Z,53.03
2022-08-04T02:43:51.981Z,53.02
2022-08-04T02:46:18.040Z,52.01
2022-08-04T02:48:47.158Z,52.86
2022-08-04T02:51:16.806Z,52.53
2022-08-04T02:53:45.697Z,52.29
2022-08-04T02:56:15.707Z,52.34
2022-08-04T02:58:45.467Z,51.69
2022-08-04T03:01:12.283Z,51.31
2022-08-04T03:03:46.838Z,51.33
2022-08-04T03:06:48.837Z,51.28
2022-08-04T03:09:35.126Z,51.56
2022-08-04T03:12:17.518Z,50.70
2022-08-04T03:15:08.508Z,50.44
2022-08-04T03:17:59.709Z,51.58
2022-08-04T03:20:48.177Z,52.67
2022-08-04T03:23:17.930Z,52.05
2022-08-04T03:26:06.637Z,52.18
2022-08-04T03:29:00.809Z,51.74
2022-08-04T03:31:39.497Z,51.73
2022-08-04T03:34:41.419Z,52.53
2022-08-04T03:37:26.177Z,53.85
2022-08-04T03:40:10.891Z,54.61
2022-08-04T03:43:07.386Z,54.90
2022-08-04T03:46:02.078Z,53.89
2022-08-04T03:49:05.819Z,52.95
2022-08-04T03:52:23.818Z,53.61
2022-08-04T03:54:53.527Z,54.06
2022-08-04T03:57:20.214Z,54.01
2022-08-04T04:00:15.929Z,54.25
2022-08-04T04:03:28.122Z,54.08
2022-08-04T04:06:17.857Z,55.41
2022-08-04T04:08:58.583Z,53.87
2022-08-04T04:11:58.217Z,54.50
2022-08-04T04:14:52.936Z,52.11
2022-08-04T04:18:01.068Z,49.67
2022-08-04T04:20:33.898Z,48.42
2022-08-04T04:23:27.017Z,47.51
2022-08-04T04:26:45.437Z,46.74
2022-08-04T04:29:18.807Z,44.45
2022-08-04T04:32:06.555Z,42.09
2022-08-04T04:35:02.182Z,41.99
2022-08-04T04:37:59.478Z,42.19
2022-08-04T04:40:34.308Z,42.12
2022-08-04T04:43:13.907Z,41.35
2022-08-04T04:45:53.948Z,42.37
2022-08-04T04:48:48.687Z,40.50
2022-08-04T04:51:52.236Z,39.04
2022-08-04T04:54:44.962Z,38.56
2022-08-04T04:57:53.286Z,36.67
2022-08-04T05:00:13.825Z,37.01
2022-08-04T05:03:06.020Z,35.54
2022-08-04T05:06:15.341Z,34.58
2022-08-04T05:09:06.637Z,34.29
2022-08-04T05:14:30.984Z,33.95
2022-08-04T05:14:58.599Z,33.22
2022-08-04T05:17:35.515Z,33.48
2022-08-04T05:20:15.103Z,31.78
2022-08-04T05:23:09.375Z,30.81
2022-08-04T05:25:41.295Z,30.54
2022-08-04T05:28:20.930Z,30.04
2022-08-04T05:30:51.718Z,29.19
2022-08-04T05:33:29.267Z,28.33
2022-08-04T05:36:18.397Z,27.57
2022-08-04T05:38:51.530Z,28.06
2022-08-04T05:41:19.364Z,28.36
2022-08-04T05:43:48.857Z,28.97
2022-08-04T05:46:17.505Z,29.64
2022-08-04T05:48:46.032Z,29.68
2022-08-04T05:51:14.245Z,28.16
2022-08-04T05:53:44.476Z,27.19
2022-08-04T05:56:14.039Z,26.19
2022-08-04T05:58:41.978Z,26.22
2022-08-04T06:01:10.887Z,25.20
2022-08-04T06:03:40.375Z,26.37
2022-08-04T06:06:08.243Z,24.45
2022-08-04T06:08:35.106Z,24.31
2022-08-04T06:11:05.668Z,23.75
2022-08-04T06:13:48.919Z,23.64
2022-08-04T06:16:29.643Z,23.39
2022-08-04T06:20:00.314Z,23.54
2022-08-04T06:21:51.205Z,23.76
2022-08-04T06:24:52.935Z,22.95
2022-08-04T06:27:20.717Z,24.74
2022-08-04T06:29:51.811Z,22.81
2022-08-04T06:32:40.058Z,23.51
2022-08-04T06:35:10.263Z,24.53
2022-08-04T06:37:41.988Z,23.79
2022-08-04T06:40:30.633Z,23.95
2022-08-04T06:43:01.083Z,22.82
2022-08-04T06:45:28.026Z,23.69
2022-08-04T06:47:55.717Z,23.20
2022-08-04T06:51:25.476Z,23.16
2022-08-04T06:53:10.136Z,23.70
2022-08-04T06:55:38.257Z,23.63
2022-08-04T06:58:06.497Z,23.70
2022-08-04T07:00:35.315Z,22.02
2022-08-04T07:03:03.800Z,24.00
2022-08-04T07:05:31.531Z,21.26
2022-08-04T07:07:59.220Z,21.90
2022-08-04T07:10:30.606Z,21.87
2022-08-04T07:12:58.821Z,22.56
2022-08-04T07:15:27.064Z,21.96
2022-08-04T07:17:55.274Z,23.09
2022-08-04T07:20:35.200Z,22.94
2022-08-04T07:23:06.447Z,24.03
2022-08-04T07:26:11.980Z,21.49
2022-08-04T07:28:27.113Z,21.32
2022-08-04T07:30:55.657Z,20.35
2022-08-04T07:33:24.617Z,21.09
2022-08-04T07:36:09.527Z,21.40
2022-08-04T07:38:50.655Z,22.80
2022-08-04T07:41:39.509Z,21.68
2022-08-04T07:44:07.754Z,19.33
2022-08-04T07:46:35.296Z,20.37
2022-08-04T07:49:02.193Z,20.09
2022-08-04T07:51:35.493Z,18.54
2022-08-04T07:54:06.319Z,18.34
2022-08-04T07:56:39.433Z,19.03
2022-08-04T07:59:06.954Z,19.35
2022-08-04T08:01:37.254Z,18.15
2022-08-04T08:04:09.921Z,18.51
2022-08-04T08:06:42.720Z,20.45
2022-08-04T08:09:14.533Z,19.12
2022-08-04T08:12:37.958Z,17.67
2022-08-04T08:14:32.075Z,17.84
2022-08-04T08:17:02.909Z,17.58
2022-08-04T08:19:31.725Z,18.22
2022-08-04T08:22:00.963Z,20.95
2022-08-04T08:24:35.470Z,20.42
2022-08-04T08:27:06.089Z,19.26
2022-08-04T08:29:35.191Z,21.25
2022-08-04T08:32:08.172Z,18.73
2022-08-04T08:34:37.477Z,18.21
2022-08-04T08:37:07.676Z,19.03
2022-08-04T08:39:54.469Z,18.77
2022-08-04T08:42:40.999Z,21.12
2022-08-04T08:45:17.789Z,19.72
2022-08-04T08:48:06.174Z,18.20
2022-08-04T08:50:48.974Z,18.26
2022-08-04T08:53:45.296Z,19.42
2022-08-04T08:56:31.392Z,19.51
2022-08-04T08:59:27.717Z,21.77
2022-08-04T09:02:26.596Z,18.89
2022-08-04T09:05:19.616Z,19.41
2022-08-04T09:08:09.713Z,18.08
2022-08-04T09:10:48.096Z,19.14
2022-08-04T09:13:21.510Z,18.98
2022-08-04T09:15:52.477Z,20.28
2022-08-04T09:18:27.065Z,19.83
2022-08-04T09:21:06.537Z,20.45
2022-08-04T09:23:58.095Z,20.32
2022-08-04T09:26:35.020Z,20.50
2022-08-04T09:29:29.626Z,23.07
2022-08-04T09:32:39.307Z,21.05
2022-08-04T09:35:34.125Z,21.90
2022-08-04T09:38:06.214Z,20.88
2022-08-04T09:41:26.893Z,18.72
2022-08-04T09:44:50.584Z,21.08
2022-08-04T09:47:39.797Z,19.10
2022-08-04T09:50:30.157Z,18.41
2022-08-04T09:53:03.346Z,18.88
2022-08-04T09:55:54.100Z,19.13
2022-08-04T09:58:40.499Z,16.69
2022-08-04T10:01:11.880Z,16.44
2022-08-04T10:03:41.741Z,16.13
2022-08-04T10:06:26.907Z,16.26
2022-08-04T10:09:18.695Z,15.44
2022-08-04T10:12:09.499Z,16.46
2022-08-04T10:15:04.779Z,15.05
2022-08-04T10:17:52.182Z,15.35
2022-08-04T10:20:55.532Z,14.90
2022-08-04T10:23:55.287Z,12.22
2022-08-04T10:26:57.314Z,14.34
2022-08-04T10:29:31.336Z,13.11
2022-08-04T10:32:05.141Z,12.91
2022-08-04T10:34:39.938Z,12.75
2022-08-04T10:37:13.873Z,13.82
2022-08-04T10:40:24.215Z,12.80
2022-08-04T10:43:00.614Z,13.61
2022-08-04T10:45:35.190Z,13.44
2022-08-04T10:48:34.310Z,13.14
2022-08-04T10:51:04.854Z,13.19
2022-08-04T10:53:35.036Z,13.09
2022-08-04T10:56:09.880Z,11.44
2022-08-04T10:58:47.836Z,11.56
2022-08-04T11:01:50.982Z,9.68
2022-08-04T11:04:53.786Z,12.75
2022-08-04T11:07:22.369Z,11.51
2022-08-04T11:09:49.687Z,11.39
2022-08-04T11:12:25.699Z,11.59
2022-08-04T11:15:01.671Z,11.48
2022-08-04T11:17:36.007Z,11.99
2022-08-04T11:20:41.388Z,11.58
2022-08-04T11:23:14.295Z,11.82
2022-08-04T11:25:57.524Z,11.92
2022-08-04T11:28:46.220Z,11.91
2022-08-04T11:31:21.657Z,12.82
2022-08-04T11:34:11.743Z,11.38
2022-08-04T11:36:46.936Z,12.53
2022-08-04T11:39:29.660Z,11.00
2022-08-04T11:42:11.769Z,11.66
2022-08-04T11:44:44.534Z,12.58
2022-08-04T11:47:33.239Z,14.20
2022-08-04T11:50:13.182Z,12.60
2022-08-04T11:52:43.103Z,14.04
2022-08-04T11:55:14.216Z,12.74
2022-08-04T11:57:41.189Z,13.94
2022-08-04T12:00:12.904Z,12.60
2022-08-04T12:02:55.029Z,12.49
2022-08-04T12:05:37.181Z,12.73
2022-08-04T12:08:23.015Z,11.10
2022-08-04T12:11:11.637Z,11.88
2022-08-04T12:13:58.716Z,12.27
2022-08-04T12:16:37.823Z,13.47
2022-08-04T12:19:22.106Z,11.56
2022-08-04T12:22:00.357Z,12.62
2022-08-04T12:24:53.428Z,12.61
2022-08-04T12:28:01.467Z,15.47
2022-08-04T12:30:58.558Z,14.92
2022-08-04T12:33:41.376Z,14.00
2022-08-04T12:36:22.268Z,14.27
2022-08-04T12:38:59.381Z,14.02
2022-08-04T12:41:33.536Z,13.32
2022-08-04T12:44:10.877Z,12.71
2022-08-04T12:47:27.235Z,13.09
2022-08-04T12:49:59.010Z,13.43
2022-08-04T12:52:51.665Z,13.86
2022-08-04T12:55:15.742Z,11.82
2022-08-04T12:57:44.018Z,14.10
2022-08-04T13:00:11.506Z,14.95
2022-08-04T13:02:46.436Z,13.30
2022-08-04T13:05:16.880Z,13.30
2022-08-04T13:07:51.156Z,12.28
2022-08-04T13:10:21.182Z,14.42
2022-08-04T13:12:59.498Z,14.27
2022-08-04T13:15:28.671Z,14.15
2022-08-04T13:17:56.338Z,13.30
2022-08-04T13:20:35.947Z,13.72
2022-08-04T13:23:21.483Z,13.16
2022-08-04T13:26:42.334Z,13.83
2022-08-04T13:28:47.137Z,14.16
2022-08-04T13:31:20.228Z,13.53
2022-08-04T13:33:51.626Z,12.88
2022-08-04T13:36:20.039Z,12.51
2022-08-04T13:38:52.164Z,12.45
2022-08-04T13:41:20.547Z,13.25
2022-08-04T13:44:19.562Z,13.33
2022-08-04T13:46:50.444Z,13.17
2022-08-04T13:49:42.964Z,12.50
2022-08-04T13:52:11.231Z,12.73
2022-08-04T13:54:43.737Z,12.34
2022-08-04T13:57:19.596Z,12.09
2022-08-04T13:59:52.547Z,12.57
2022-08-04T14:02:34.808Z,12.08
2022-08-04T14:05:26.810Z,12.40
2022-08-04T14:08:00.855Z,12.77
2022-08-04T14:10:27.895Z,13.52
2022-08-04T14:12:55.848Z,13.73
2022-08-04T14:15:54.733Z,12.36
2022-08-04T14:18:32.875Z,12.96
2022-08-04T14:21:11.638Z,14.34
2022-08-04T14:23:47.182Z,13.45
2022-08-04T14:26:34.054Z,13.43
2022-08-04T14:29:35.955Z,14.03
2022-08-04T14:32:12.669Z,13.10
2022-08-04T14:34:44.747Z,13.23
2022-08-04T14:37:20.592Z,13.68
2022-08-04T14:40:17.853Z,13.59
2022-08-04T14:42:55.377Z,13.00
2022-08-04T14:45:32.013Z,13.87
2022-08-04T14:48:00.177Z,13.62
2022-08-04T14:50:39.026Z,15.65
2022-08-04T14:53:11.038Z,15.04
2022-08-04T14:55:39.989Z,14.67
2022-08-04T14:58:36.168Z,14.54
2022-08-04T15:00:58.073Z,15.12
2022-08-04T15:03:25.477Z,14.42
2022-08-04T15:06:00.093Z,14.69
2022-08-04T15:08:31.965Z,15.69
2022-08-04T15:11:03.569Z,15.27
2022-08-04T15:13:32.598Z,15.42
2022-08-04T15:16:08.081Z,14.03
2022-08-04T15:18:37.385Z,14.32
2022-08-04T15:21:06.039Z,14.78
2022-08-04T15:23:39.216Z,15.03
2022-08-04T15:26:10.707Z,14.37
2022-08-04T15:28:40.026Z,15.75
2022-08-04T15:32:01.772Z,15.95
2022-08-04T15:33:57.241Z,15.79
2022-08-04T15:36:57.192Z,15.11
2022-08-04T15:39:46.245Z,15.55
2022-08-04T15:42:24.806Z,14.92
2022-08-04T15:44:51.794Z,16.11
2022-08-04T15:47:18.980Z,15.33
2022-08-04T15:49:45.957Z,15.57
2022-08-04T15:52:18.899Z,16.57
2022-08-04T15:54:52.033Z,16.21
2022-08-04T15:57:57.549Z,16.71
2022-08-04T16:00:24.518Z,17.13
2022-08-04T16:02:51.824Z,16.68
2022-08-04T16:05:21.397Z,16.59
2022-08-04T16:07:59.088Z,16.13
2022-08-04T16:10:32.826Z,16.67
2022-08-04T16:13:08.370Z,17.58
2022-08-04T16:15:46.961Z,18.62
2022-08-04T16:18:39.747Z,17.83
2022-08-04T16:21:22.739Z,18.45
2022-08-04T16:23:56.904Z,19.51
2022-08-04T16:26:45.797Z,19.68
2022-08-04T16:29:41.678Z,20.59
2022-08-04T16:32:09.567Z,20.04
2022-08-04T16:34:58.971Z,19.65
2022-08-04T16:37:31.497Z,19.09
2022-08-04T16:40:34.570Z,20.58
2022-08-04T16:43:13.565Z,20.98
2022-08-04T16:45:51.495Z,20.55
2022-08-04T16:48:21.057Z,21.13
2022-08-04T16:51:14.606Z,21.61
2022-08-04T16:54:02.700Z,21.86
2022-08-04T16:56:34.173Z,21.98
2022-08-04T16:59:09.957Z,21.60
2022-08-04T17:01:38.452Z,21.19
2022-08-04T17:04:06.704Z,20.75
2022-08-04T17:06:38.277Z,22.16
2022-08-04T17:09:11.461Z,22.32
2022-08-04T17:11:38.417Z,23.44
2022-08-04T17:14:06.490Z,23.36
2022-08-04T17:16:36.495Z,23.36
2022-08-04T17:19:05.317Z,25.31
2022-08-04T17:21:34.819Z,25.25
2022-08-04T17:24:13.322Z,25.95
2022-08-04T17:26:53.946Z,26.18
2022-08-04T17:29:44.598Z,27.57
2022-08-04T17:32:21.926Z,27.56
2022-08-04T17:34:51.462Z,27.81
2022-08-04T17:37:40.086Z,29.43
2022-08-04T17:40:18.479Z,29.43
2022-08-04T17:44:04.223Z,29.22
2022-08-04T17:46:29.073Z,29.78
2022-08-04T17:49:17.103Z,30.92
2022-08-04T17:52:04.342Z,30.44
2022-08-04T17:54:38.717Z,30.91
2022-08-04T17:57:21.797Z,30.77
2022-08-04T17:59:59.306Z,29.46
2022-08-04T18:02:32.482Z,29.77
2022-08-04T18:05:07.067Z,29.33
2022-08-04T18:08:45.869Z,28.79
2022-08-04T18:10:57.072Z,29.10
2022-08-04T18:13:28.582Z,29.93
2022-08-04T18:16:04.124Z,30.11
2022-08-04T18:18:31.109Z,30.28
2022-08-04T18:20:59.525Z,30.69
2022-08-04T18:26:13.764Z,30.94
2022-08-04T18:28:41.395Z,31.45
2022-08-04T18:31:08.435Z,31.96
2022-08-04T18:33:39.803Z,32.32
2022-08-04T18:36:33.181Z,32.07
2022-08-04T18:39:13.419Z,32.29
2022-08-04T18:42:00.959Z,32.60
2022-08-04T18:44:51.891Z,32.86
2022-08-04T18:47:23.557Z,33.01
2022-08-04T18:50:58.552Z,32.72
2022-08-04T18:52:45.323Z,32.81
2022-08-04T18:55:33.991Z,32.49
2022-08-04T18:58:01.491Z,33.40
2022-08-04T19:00:28.847Z,33.50
2022-08-04T19:02:56.203Z,33.77
2022-08-04T19:05:24.396Z,36.46
2022-08-04T19:08:33.651Z,37.21
2022-08-04T19:10:54.176Z,37.58
2022-08-04T19:13:27.579Z,38.13
2022-08-04T19:15:54.835Z,38.75
2022-08-04T19:18:25.887Z,38.94
2022-08-04T19:20:55.391Z,38.64
2022-08-04T19:24:27.959Z,38.69
2022-08-04T19:28:57.009Z,38.49
2022-08-04T19:31:34.097Z,39.24
2022-08-04T19:34:05.074Z,39.02
2022-08-04T19:36:34.515Z,39.30
2022-08-04T19:39:04.672Z,39.54
2022-08-04T19:42:04.696Z,39.20
2022-08-04T19:44:25.089Z,39.02
2022-08-04T19:46:56.896Z,39.64
2022-08-04T19:50:05.026Z,39.71
2022-08-04T19:52:14.946Z,39.58
2022-08-04T19:55:01.242Z,40.02
2022-08-04T19:57:41.375Z,40.78
2022-08-04T20:00:10.166Z,40.83
2022-08-04T20:02:37.596Z,41.15
2022-08-04T20:07:52.281Z,41.89
2022-08-04T20:10:23.853Z,42.43
2022-08-04T20:12:55.592Z,41.94
2022-08-04T20:15:22.757Z,41.72
2022-08-04T20:18:14.339Z,41.46
2022-08-04T20:20:36.970Z,41.53
2022-08-04T20:23:07.349Z,41.64
2022-08-04T20:25:38.850Z,42.12
2022-08-04T20:28:07.427Z,42.47
2022-08-04T20:30:34.247Z,42.45
2022-08-04T20:33:01.696Z,42.35
2022-08-04T20:35:32.656Z,42.23
2022-08-04T20:38:33.692Z,42.43
2022-08-04T20:41:01.485Z,42.70
2022-08-04T20:43:28.409Z,42.27
2022-08-04T20:45:59.261Z,42.24
2022-08-04T20:48:33.615Z,42.37
2022-08-04T20:51:00.818Z,42.32
2022-08-04T20:56:19.179Z,43.09
2022-08-04T20:58:58.227Z,43.39
2022-08-04T21:01:29.593Z,42.68
2022-08-04T21:04:28.011Z,43.17
2022-08-04T21:06:57.439Z,43.59
2022-08-04T21:09:37.262Z,43.77
2022-08-04T21:12:07.159Z,43.71
2022-08-04T21:14:34.466Z,44.32
2022-08-04T21:19:50.314Z,44.43
2022-08-04T21:22:29.821Z,44.11
2022-08-04T21:25:00.388Z,43.96
2022-08-04T21:27:28.750Z,43.11
2022-08-04T21:29:55.527Z,44.31
2022-08-04T21:32:27.245Z,43.87
2022-08-04T21:34:55.117Z,43.49
2022-08-04T21:37:21.929Z,43.89
2022-08-04T21:39:59.077Z,43.56
2022-08-04T21:42:28.426Z,43.43
2022-08-04T21:44:58.179Z,43.66
2022-08-04T21:47:25.201Z,44.35
2022-08-04T21:49:56.788Z,44.34
2022-08-04T21:52:24.845Z,45.24
2022-08-04T21:54:54.487Z,45.24
2022-08-04T21:57:24.839Z,45.44
2022-08-04T21:59:52.315Z,44.85
2022-08-04T22:02:19.528Z,44.87
2022-08-04T22:04:48.458Z,45.53
2022-08-04T22:07:16.546Z,44.90
2022-08-04T22:10:02.440Z,45.24
2022-08-04T22:12:30.225Z,45.20
2022-08-04T22:14:59.592Z,45.40
2022-08-04T22:17:35.057Z,45.09
2022-08-04T22:20:03.037Z,44.77
2022-08-04T22:22:33.530Z,45.57
2022-08-04T22:25:13.102Z,45.41
2022-08-04T22:28:00.741Z,45.58
2022-08-04T22:30:36.661Z,44.99
2022-08-04T22:33:08.189Z,45.14
2022-08-04T22:35:49.045Z,46.05
2022-08-04T22:38:24.062Z,45.78
2022-08-04T22:41:01.378Z,45.45
2022-08-04T22:43:33.486Z,44.74
2022-08-04T22:46:03.874Z,45.07
2022-08-04T22:48:37.668Z,44.51
2022-08-04T22:51:07.500Z,45.10
2022-08-04T22:53:35.531Z,45.78
2022-08-04T22:56:09.832Z,44.73
2022-08-04T22:58:45.060Z,44.97
2022-08-04T23:01:14.964Z,46.12
2022-08-04T23:03:55.239Z,46.71
2022-08-04T23:06:24.776Z,47.70
2022-08-04T23:08:52.758Z,47.55
2022-08-04T23:11:19.688Z,47.19
2022-08-04T23:13:47.241Z,47.89
2022-08-04T23:16:15.857Z,48.57
2022-08-04T23:18:45.201Z,48.31
2022-08-04T23:21:16.716Z,47.87
2022-08-04T23:23:45.548Z,48.67
2022-08-04T23:26:27.748Z,48.27
2022-08-04T23:28:56.052Z,47.36
2022-08-04T23:31:23.486Z,46.84
2022-08-04T23:33:52.013Z,46.33
2022-08-04T23:36:29.637Z,45.94
2022-08-04T23:39:03.920Z,46.15
2022-08-04T23:41:51.027Z,47.08
2022-08-04T23:44:24.967Z,48.07
2022-08-04T23:47:03.677Z,47.69
2022-08-04T23:49:43.709Z,47.24
2022-08-04T23:52:23.467Z,47.54
2022-08-04T23:54:54.799Z,48.27
2022-08-04T23:57:22.226Z,48.89
2022-08-04T23:59:54.944Z,48.86
